createdAt,value
2023-04-17T00:01:24.762Z,98885.63
2023-04-17T00:04:10.473Z,98885.84
2023-04-17T00:06:56.447Z,98888.63
2023-04-17T00:09:41.636Z,98889.13
2023-04-17T00:12:26.855Z,98884.66
2023-04-17T00:15:12.556Z,98892.41
2023-04-17T00:17:58.056Z,98812.94
2023-04-17T00:20:43.330Z,98888.13
2023-04-17T00:23:28.495Z,98879.75
2023-04-17T00:26:13.898Z,98873.19
2023-04-17T00:29:01.777Z,98836.19
2023-04-17T00:31:49.150Z,98884.25
2023-04-17T00:34:34.569Z,98872.22
2023-04-17T00:37:20.039Z,98885.53
2023-04-17T00:40:05.756Z,98884.38
2023-04-17T00:42:51.071Z,98882.41
2023-04-17T00:45:36.428Z,98880.47
2023-04-17T00:48:22.069Z,98879.81
2023-04-17T00:51:08.042Z,98885.56
2023-04-17T00:53:54.464Z,98885.22
2023-04-17T00:56:41.146Z,98884.56
2023-04-17T00:59:28.288Z,98815.25
2023-04-17T01:02:13.602Z,98879.59
2023-04-17T01:04:58.813Z,98880.44
2023-04-17T01:07:45.389Z,98885.25
2023-04-17T01:10:30.725Z,98880.78
2023-04-17T01:13:15.897Z,98886.19
2023-04-17T01:16:01.745Z,98880.84
2023-04-17T01:18:47.855Z,98851.81
2023-04-17T01:21:33.398Z,98881.06
2023-04-17T01:24:19.441Z,98877.97
2023-04-17T01:27:05.060Z,98886.72
2023-04-17T01:29:50.950Z,98864.00
2023-04-17T01:32:37.814Z,98879.34
2023-04-17T01:35:23.236Z,98869.16
2023-04-17T01:38:08.458Z,98880.09
2023-04-17T01:40:53.544Z,98858.47
2023-04-17T01:43:43.738Z,98829.00
2023-04-17T01:46:29.746Z,98887.59
2023-04-17T01:49:15.060Z,98890.59
2023-04-17T01:52:00.467Z,98890.53
2023-04-17T01:54:45.789Z,98892.16
2023-04-17T01:57:32.792Z,98866.28
2023-04-17T02:00:18.183Z,98876.41
2023-04-17T02:03:03.962Z,98865.13
2023-04-17T02:05:50.470Z,98808.25
2023-04-17T02:08:35.698Z,98868.75
2023-04-17T02:11:22.242Z,98874.34
2023-04-17T02:14:09.755Z,98878.19
2023-04-17T02:16:55.145Z,98876.44
2023-04-17T02:19:40.314Z,98834.38
2023-04-17T02:25:35.731Z,98860.81
2023-04-17T02:28:22.100Z,98882.91
2023-04-17T02:31:08.636Z,98815.63
2023-04-17T02:33:54.066Z,98890.81
2023-04-17T02:36:39.297Z,98874.78
2023-04-17T02:39:25.704Z,98891.13
2023-04-17T02:42:11.156Z,98871.53
2023-04-17T02:44:56.478Z,98891.00
2023-04-17T02:47:42.097Z,98881.25
2023-04-17T02:50:28.565Z,98888.41
2023-04-17T02:53:24.967Z,98896.38
2023-04-17T02:56:10.387Z,98796.94
2023-04-17T02:58:55.633Z,98873.66
2023-04-17T03:01:41.090Z,98895.94
2023-04-17T03:04:26.806Z,98887.81
2023-04-17T03:07:12.261Z,98888.72
2023-04-17T03:09:57.691Z,98888.75
2023-04-17T03:12:42.738Z,98885.31
2023-04-17T03:15:28.265Z,98885.31
2023-04-17T03:18:13.320Z,98886.00
2023-04-17T03:20:58.504Z,98893.41
2023-04-17T03:23:43.603Z,98891.94
2023-04-17T03:26:29.081Z,98885.03
2023-04-17T03:29:15.828Z,98888.63
2023-04-17T03:32:01.019Z,98883.00
2023-04-17T03:34:46.901Z,98884.97
2023-04-17T03:37:32.450Z,98897.16
2023-04-17T03:40:18.006Z,98906.31
2023-04-17T03:43:05.115Z,98907.94
2023-04-17T03:45:50.883Z,98904.16
2023-04-17T03:48:36.741Z,98845.72
2023-04-17T03:51:22.104Z,98905.63
2023-04-17T03:54:07.264Z,98916.19
2023-04-17T03:56:52.367Z,98637.13
2023-04-17T03:59:38.027Z,98905.09
2023-04-17T04:02:24.431Z,98913.94
2023-04-17T04:05:11.845Z,98911.13
2023-04-17T04:07:56.996Z,98913.22
2023-04-17T04:10:52.777Z,98923.09
2023-04-17T04:13:44.174Z,98921.44
2023-04-17T04:16:30.242Z,98924.06
2023-04-17T04:19:24.003Z,98922.97
2023-04-17T04:22:09.884Z,98904.50
2023-04-17T04:25:02.543Z,98866.50
2023-04-17T04:28:02.648Z,98907.84
2023-04-17T04:30:51.060Z,98934.25
2023-04-17T04:33:38.962Z,98930.88
2023-04-17T04:36:26.183Z,98928.31
2023-04-17T04:39:22.771Z,98933.22
2023-04-17T04:42:08.304Z,98931.16
2023-04-17T04:45:06.061Z,98931.94
2023-04-17T04:47:52.532Z,98906.00
2023-04-17T04:50:38.275Z,98937.09
2023-04-17T04:53:25.095Z,98881.31
2023-04-17T04:56:13.906Z,98940.44
2023-04-17T04:58:59.053Z,98936.94
2023-04-17T05:01:45.016Z,98930.41
2023-04-17T05:04:31.735Z,98951.00
2023-04-17T05:07:19.100Z,98943.91
2023-04-17T05:10:06.127Z,98954.69
2023-04-17T05:12:54.734Z,98951.16
2023-04-17T05:15:40.050Z,98884.31
2023-04-17T05:18:26.567Z,98955.81
2023-04-17T05:21:13.387Z,98986.41
2023-04-17T05:23:58.842Z,98894.78
2023-04-17T05:26:45.589Z,98953.78
2023-04-17T05:29:31.690Z,98960.22
2023-04-17T05:32:17.262Z,98963.03
2023-04-17T05:35:15.295Z,98905.03
2023-04-17T05:38:01.596Z,98964.03
2023-04-17T05:40:46.997Z,98960.34
2023-04-17T05:43:32.140Z,98962.97
2023-04-17T05:46:17.633Z,98959.56
2023-04-17T05:49:02.713Z,98967.22
2023-04-17T05:51:48.392Z,98895.94
2023-04-17T05:54:33.928Z,98967.53
2023-04-17T05:57:19.343Z,98973.66
2023-04-17T06:00:07.643Z,98975.91
2023-04-17T06:02:59.772Z,98971.38
2023-04-17T06:05:51.760Z,98978.38
2023-04-17T06:08:37.832Z,98961.34
2023-04-17T06:11:23.553Z,98975.78
2023-04-17T06:14:08.837Z,98972.19
2023-04-17T06:16:57.366Z,98977.09
2023-04-17T06:19:43.121Z,98986.63
2023-04-17T06:22:28.402Z,98980.00
2023-04-17T06:25:13.791Z,98982.47
2023-04-17T06:27:59.299Z,98992.06
2023-04-17T06:30:44.715Z,98986.03
2023-04-17T06:33:29.907Z,98990.00
2023-04-17T06:36:15.884Z,98964.88
2023-04-17T06:39:05.841Z,98996.22
2023-04-17T06:41:51.345Z,98908.13
2023-04-17T06:44:44.567Z,99004.56
2023-04-17T06:47:32.142Z,98977.53
2023-04-17T06:50:17.591Z,98999.69
2023-04-17T06:53:02.926Z,99001.56
2023-04-17T06:55:48.099Z,99006.84
2023-04-17T06:58:33.564Z,99014.69
2023-04-17T07:01:18.942Z,99016.00
2023-04-17T07:04:04.535Z,99007.66
2023-04-17T07:06:50.374Z,98983.78
2023-04-17T07:09:35.955Z,99020.53
2023-04-17T07:12:21.159Z,98966.84
2023-04-17T07:15:06.739Z,99027.22
2023-04-17T07:17:52.224Z,99028.72
2023-04-17T07:20:37.729Z,99022.41
2023-04-17T07:23:23.252Z,99038.69
2023-04-17T07:26:08.806Z,98949.56
2023-04-17T07:28:54.335Z,99036.59
2023-04-17T07:31:39.756Z,99016.97
2023-04-17T07:34:24.977Z,99033.06
2023-04-17T07:37:10.195Z,99048.00
2023-04-17T07:39:55.404Z,99024.19
2023-04-17T07:42:40.725Z,99053.03
2023-04-17T07:45:28.380Z,99057.97
2023-04-17T07:48:13.569Z,99060.06
2023-04-17T07:51:00.179Z,99048.13
2023-04-17T07:53:45.587Z,99047.91
2023-04-17T07:56:31.181Z,99010.28
2023-04-17T07:59:16.807Z,99066.81
2023-04-17T08:02:02.113Z,99060.59
2023-04-17T08:04:47.772Z,99033.06
2023-04-17T08:07:33.402Z,99068.84
2023-04-17T08:10:18.628Z,99070.59
2023-04-17T08:13:03.819Z,99078.97
2023-04-17T08:15:49.014Z,99047.03
2023-04-17T08:18:34.348Z,99071.94
2023-04-17T08:21:19.793Z,99079.06
2023-04-17T08:24:05.354Z,99082.47
2023-04-17T08:26:50.920Z,99079.31
2023-04-17T08:29:36.379Z,99021.81
2023-04-17T08:32:22.109Z,99078.38
2023-04-17T08:35:08.330Z,99080.56
2023-04-17T08:37:53.752Z,99086.88
2023-04-17T08:40:38.861Z,99078.94
2023-04-17T08:43:28.524Z,99068.38
2023-04-17T08:46:15.001Z,99078.97
2023-04-17T08:49:03.031Z,99082.34
2023-04-17T08:51:48.475Z,98996.69
2023-04-17T08:54:33.828Z,99084.38
2023-04-17T08:57:19.032Z,99087.41
2023-04-17T09:00:05.312Z,99084.94
2023-04-17T09:02:55.488Z,99083.50
2023-04-17T09:05:42.338Z,99062.00
2023-04-17T09:08:27.836Z,99089.97
2023-04-17T09:11:18.947Z,99096.09
2023-04-17T09:14:04.217Z,99093.34
2023-04-17T09:16:55.411Z,99092.97
2023-04-17T09:20:06.352Z,99093.31
2023-04-17T09:23:03.388Z,99096.44
2023-04-17T09:26:05.819Z,99032.91
2023-04-17T09:29:08.772Z,99095.81
2023-04-17T09:31:53.940Z,99068.41
2023-04-17T09:34:42.586Z,99045.53
2023-04-17T09:37:54.385Z,99062.59
2023-04-17T09:40:41.574Z,99091.97
2023-04-17T09:43:41.029Z,99100.59
2023-04-17T09:46:43.174Z,99099.69
2023-04-17T09:49:38.987Z,99105.22
2023-04-17T09:52:24.635Z,99109.22
2023-04-17T09:55:11.716Z,99076.81
2023-04-17T09:57:59.299Z,99115.66
2023-04-17T10:00:45.077Z,99107.25
2023-04-17T10:03:30.919Z,99081.34
2023-04-17T10:06:16.904Z,99108.13
2023-04-17T10:09:02.682Z,99084.81
2023-04-17T10:11:48.096Z,99110.25
2023-04-17T10:14:36.449Z,99109.41
2023-04-17T10:17:23.532Z,99103.41
2023-04-17T10:20:17.799Z,99104.19
2023-04-17T10:23:33.379Z,99047.84
2023-04-17T10:26:24.431Z,99109.25
2023-04-17T10:29:09.869Z,99107.63
2023-04-17T10:32:14.641Z,99107.13
2023-04-17T10:35:01.897Z,99099.41
2023-04-17T10:37:47.258Z,99105.81
2023-04-17T10:40:37.173Z,99113.06
2023-04-17T10:43:22.923Z,99097.97
2023-04-17T10:46:13.173Z,99095.00
2023-04-17T10:48:58.711Z,98887.63
2023-04-17T10:51:43.796Z,99091.06
2023-04-17T10:54:32.846Z,99086.44
2023-04-17T10:57:50.116Z,99092.03
2023-04-17T11:00:37.299Z,99080.03
2023-04-17T11:03:23.544Z,99083.78
2023-04-17T11:06:09.913Z,99072.59
2023-04-17T11:08:57.381Z,99082.44
2023-04-17T11:11:45.064Z,99053.44
2023-04-17T11:14:30.669Z,99079.72
2023-04-17T11:17:16.168Z,99084.47
2023-04-17T11:20:01.469Z,99082.03
2023-04-17T11:22:47.826Z,99088.25
2023-04-17T11:25:34.565Z,99080.56
2023-04-17T11:28:20.769Z,99080.47
2023-04-17T11:31:06.109Z,99085.78
2023-04-17T11:33:51.574Z,99093.03
2023-04-17T11:36:37.107Z,99088.72
2023-04-17T11:39:28.092Z,99086.03
2023-04-17T11:42:13.574Z,99073.00
2023-04-17T11:45:07.372Z,99084.22
2023-04-17T11:47:52.722Z,99083.59
2023-04-17T11:50:38.682Z,99088.63
2023-04-17T11:53:24.779Z,99082.84
2023-04-17T11:56:15.672Z,99080.81
2023-04-17T11:59:00.750Z,99084.19
2023-04-17T12:01:52.208Z,99087.88
2023-04-17T12:04:38.466Z,99088.59
2023-04-17T12:07:24.056Z,99085.63
2023-04-17T12:10:09.744Z,99075.28
2023-04-17T12:12:55.155Z,99002.72
2023-04-17T12:15:40.308Z,99071.94
2023-04-17T12:18:25.764Z,99061.03
2023-04-17T12:21:10.897Z,99069.72
2023-04-17T12:23:56.470Z,99079.72
2023-04-17T12:26:49.272Z,99079.22
2023-04-17T12:29:44.080Z,99074.88
2023-04-17T12:32:30.410Z,99076.81
2023-04-17T12:35:16.156Z,99080.41
2023-04-17T12:38:01.230Z,99064.38
2023-04-17T12:40:46.876Z,99068.94
2023-04-17T12:43:32.833Z,99068.94
2023-04-17T12:46:18.420Z,99071.44
2023-04-17T12:49:03.848Z,98992.53
2023-04-17T12:51:49.595Z,99062.25
2023-04-17T12:54:34.811Z,99056.34
2023-04-17T12:57:20.911Z,99059.09
2023-04-17T13:00:06.763Z,99059.72
2023-04-17T13:02:52.202Z,99056.84
2023-04-17T13:05:37.623Z,99070.06
2023-04-17T13:08:22.916Z,99041.91
2023-04-17T13:11:08.514Z,99055.84
2023-04-17T13:13:53.950Z,99058.22
2023-04-17T13:16:39.277Z,99056.66
2023-04-17T13:19:24.766Z,98979.66
2023-04-17T13:22:10.290Z,99004.41
2023-04-17T13:24:55.677Z,99045.84
2023-04-17T13:27:41.029Z,99051.88
2023-04-17T13:30:26.288Z,99033.06
2023-04-17T13:33:11.319Z,99046.88
2023-04-17T13:35:56.939Z,99043.59
2023-04-17T13:38:42.397Z,99042.41
2023-04-17T13:41:28.442Z,99045.91
2023-04-17T13:44:13.836Z,99034.38
2023-04-17T13:46:59.769Z,99029.50
2023-04-17T13:49:44.947Z,99037.03
2023-04-17T13:52:30.386Z,99039.47
2023-04-17T13:55:15.810Z,99033.97
2023-04-17T13:58:01.208Z,99036.88
2023-04-17T14:00:46.676Z,99033.16
2023-04-17T14:03:32.702Z,99026.97
2023-04-17T14:06:18.088Z,99025.13
2023-04-17T14:09:03.452Z,99033.06
2023-04-17T14:11:48.637Z,99016.22
2023-04-17T14:14:34.265Z,99041.13
2023-04-17T14:17:19.599Z,99026.47
2023-04-17T14:20:06.019Z,99021.78
2023-04-17T14:22:51.320Z,99024.66
2023-04-17T14:25:37.866Z,99029.00
2023-04-17T14:28:23.604Z,99033.44
2023-04-17T14:31:08.978Z,99031.78
2023-04-17T14:33:54.258Z,99025.00
2023-04-17T14:36:39.652Z,99018.78
2023-04-17T14:39:24.847Z,99022.97
2023-04-17T14:42:10.180Z,99028.72
2023-04-17T14:44:56.436Z,99022.72
2023-04-17T14:47:41.814Z,99026.81
2023-04-17T14:50:26.910Z,99031.94
2023-04-17T14:53:12.271Z,99004.59
2023-04-17T14:55:57.801Z,98954.38
2023-04-17T14:58:43.604Z,99026.31
2023-04-17T15:01:29.633Z,98995.84
2023-04-17T15:04:15.762Z,99035.56
2023-04-17T15:07:02.639Z,98987.00
2023-04-17T15:09:48.179Z,98770.91
2023-04-17T15:12:33.627Z,99011.31
2023-04-17T15:15:19.279Z,99017.94
2023-04-17T15:18:04.972Z,99007.41
2023-04-17T15:20:50.348Z,99011.19
2023-04-17T15:23:35.767Z,99012.25
2023-04-17T15:26:22.355Z,99001.75
2023-04-17T15:29:07.648Z,99013.44
2023-04-17T15:31:53.433Z,99010.81
2023-04-17T15:34:39.588Z,98999.59
2023-04-17T15:37:25.013Z,98998.72
2023-04-17T15:40:10.720Z,98976.16
2023-04-17T15:42:56.063Z,98954.59
2023-04-17T15:45:41.453Z,98942.94
2023-04-17T15:48:27.920Z,98974.00
2023-04-17T15:51:13.267Z,98978.06
2023-04-17T15:53:58.614Z,99001.72
2023-04-17T15:56:43.829Z,98997.03
2023-04-17T15:59:29.382Z,99001.66
2023-04-17T16:02:14.934Z,99004.88
2023-04-17T16:05:00.801Z,99002.72
2023-04-17T16:07:46.088Z,99010.84
2023-04-17T16:10:31.251Z,99006.13
2023-04-17T16:13:16.617Z,99004.66
2023-04-17T16:16:01.724Z,99012.56
2023-04-17T16:18:46.991Z,98976.69
2023-04-17T16:21:32.220Z,99011.88
2023-04-17T16:24:17.649Z,99019.69
2023-04-17T16:27:03.013Z,99013.09
2023-04-17T16:29:48.106Z,99016.25
2023-04-17T16:32:33.948Z,98994.03
2023-04-17T16:35:19.006Z,99002.75
2023-04-17T16:38:04.570Z,99015.97
2023-04-17T16:40:50.164Z,99012.97
2023-04-17T16:43:35.529Z,98992.72
2023-04-17T16:46:26.069Z,99010.66
2023-04-17T16:49:17.207Z,99010.41
2023-04-17T16:52:02.955Z,99021.44
2023-04-17T16:54:48.469Z,99012.56
2023-04-17T16:57:34.431Z,99008.97
2023-04-17T17:00:20.500Z,99021.16
2023-04-17T17:03:06.223Z,99018.72
2023-04-17T17:05:51.622Z,98963.28
2023-04-17T17:08:37.074Z,99033.41
2023-04-17T17:11:23.249Z,98999.97
2023-04-17T17:14:08.977Z,99034.06
2023-04-17T17:16:54.705Z,99042.31
2023-04-17T17:19:40.239Z,98987.63
2023-04-17T17:22:25.354Z,99022.38
2023-04-17T17:25:11.004Z,99035.66
2023-04-17T17:27:56.426Z,99013.78
2023-04-17T17:30:42.337Z,99024.47
2023-04-17T17:33:29.377Z,99033.06
2023-04-17T17:36:14.778Z,99035.69
2023-04-17T17:39:00.437Z,99038.50
2023-04-17T17:41:47.351Z,99038.84
2023-04-17T17:44:33.026Z,99035.72
2023-04-17T17:47:18.555Z,99038.16
2023-04-17T17:50:04.045Z,99041.16
2023-04-17T17:52:49.518Z,99026.66
2023-04-17T17:55:34.882Z,99042.31
2023-04-17T17:58:20.426Z,99042.16
2023-04-17T18:01:06.168Z,99034.38
2023-04-17T18:03:51.540Z,99032.41
2023-04-17T18:06:37.335Z,99034.03
2023-04-17T18:09:22.871Z,98943.72
2023-04-17T18:12:08.109Z,99041.75
2023-04-17T18:14:53.557Z,99013.41
2023-04-17T18:17:39.055Z,98945.03
2023-04-17T18:20:24.507Z,99035.97
2023-04-17T18:23:09.884Z,99028.03
2023-04-17T18:26:02.435Z,99027.03
2023-04-17T18:28:48.040Z,99039.53
2023-04-17T18:31:33.729Z,99033.91
2023-04-17T18:34:19.417Z,99032.94
2023-04-17T18:37:05.186Z,99009.03
2023-04-17T18:39:54.856Z,99058.09
2023-04-17T18:42:39.987Z,99048.41
2023-04-17T18:45:25.968Z,99053.66
2023-04-17T18:48:11.221Z,99055.59
2023-04-17T18:50:56.651Z,99055.59
2023-04-17T18:53:42.699Z,99056.88
2023-04-17T18:56:28.217Z,99054.44
2023-04-17T18:59:13.921Z,99043.84
2023-04-17T19:01:59.260Z,99045.75
2023-04-17T19:04:44.219Z,99067.44
2023-04-17T19:07:30.067Z,99052.16
2023-04-17T19:10:15.179Z,99065.34
2023-04-17T19:13:00.518Z,99064.00
2023-04-17T19:15:45.569Z,99074.03
2023-04-17T19:18:31.113Z,99071.06
2023-04-17T19:21:16.501Z,99074.56
2023-04-17T19:24:01.810Z,99066.31
2023-04-17T19:26:47.346Z,99067.22
2023-04-17T19:29:32.682Z,99076.31
2023-04-17T19:32:17.946Z,99069.00
2023-04-17T19:35:03.847Z,99061.88
2023-04-17T19:37:49.234Z,99082.38
2023-04-17T19:40:35.287Z,99081.38
2023-04-17T19:43:20.717Z,99080.94
2023-04-17T19:46:06.166Z,99079.59
2023-04-17T19:48:51.290Z,99084.09
2023-04-17T19:51:37.811Z,99051.97
2023-04-17T19:54:22.916Z,99084.59
2023-04-17T19:57:08.128Z,99084.69
2023-04-17T19:59:53.355Z,99081.38
2023-04-17T20:02:38.870Z,99086.03
2023-04-17T20:05:24.620Z,99096.00
2023-04-17T20:08:10.047Z,99089.00
2023-04-17T20:10:55.206Z,99054.59
2023-04-17T20:13:41.591Z,99080.59
2023-04-17T20:16:27.263Z,99084.97
2023-04-17T20:19:13.402Z,99029.47
2023-04-17T20:21:59.020Z,99078.81
2023-04-17T20:24:44.118Z,99093.94
2023-04-17T20:27:29.460Z,99094.34
2023-04-17T20:30:15.169Z,99100.13
2023-04-17T20:33:00.392Z,99099.06
2023-04-17T20:35:46.148Z,99085.06
2023-04-17T20:38:31.378Z,99083.63
2023-04-17T20:41:16.968Z,99085.88
2023-04-17T20:44:02.787Z,99098.13
2023-04-17T20:46:48.392Z,99102.78
2023-04-17T20:49:34.114Z,99100.28
2023-04-17T20:52:19.826Z,99098.72
2023-04-17T20:55:06.314Z,99095.22
2023-04-17T20:57:52.273Z,99096.94
2023-04-17T21:00:42.102Z,99096.22
2023-04-17T21:03:33.498Z,99090.91
2023-04-17T21:06:18.677Z,99096.94
2023-04-17T21:09:04.264Z,99096.41
2023-04-17T21:11:49.688Z,99101.81
2023-04-17T21:14:36.784Z,99093.72
2023-04-17T21:17:22.802Z,99106.47
2023-04-17T21:20:09.084Z,99102.38
2023-04-17T21:22:54.664Z,99093.16
2023-04-17T21:25:39.773Z,99071.59
2023-04-17T21:28:25.376Z,99103.81
2023-04-17T21:31:14.208Z,99108.59
2023-04-17T21:33:59.963Z,99097.47
2023-04-17T21:36:45.649Z,99121.00
2023-04-17T21:39:32.903Z,99086.13
2023-04-17T21:42:18.445Z,99085.81
2023-04-17T21:45:03.731Z,99114.72
2023-04-17T21:47:49.370Z,99118.88
2023-04-17T21:50:34.654Z,99117.00
2023-04-17T21:53:20.135Z,99123.50
2023-04-17T21:56:06.963Z,99129.72
2023-04-17T21:58:52.770Z,99128.22
2023-04-17T22:01:38.330Z,99100.25
2023-04-17T22:04:23.867Z,99133.00
2023-04-17T22:07:09.132Z,99127.38
2023-04-17T22:09:54.332Z,99026.75
2023-04-17T22:12:39.509Z,99135.00
2023-04-17T22:15:24.950Z,99127.63
2023-04-17T22:18:10.480Z,99125.84
2023-04-17T22:20:56.106Z,99134.56
2023-04-17T22:23:41.549Z,99135.00
2023-04-17T22:26:27.868Z,99131.16
2023-04-17T22:29:13.446Z,99145.38
2023-04-17T22:31:59.012Z,99139.47
2023-04-17T22:34:49.001Z,99145.16
2023-04-17T22:37:34.450Z,99131.78
2023-04-17T22:40:20.070Z,99127.09
2023-04-17T22:43:05.667Z,99132.34
2023-04-17T22:45:51.122Z,99149.00
2023-04-17T22:48:36.594Z,99149.72
2023-04-17T22:51:22.027Z,99137.44
2023-04-17T22:54:19.058Z,99147.09
2023-04-17T22:57:10.299Z,99139.50
2023-04-17T22:59:55.757Z,99122.97
2023-04-17T23:02:41.075Z,99152.31
2023-04-17T23:05:26.354Z,99151.75
2023-04-17T23:08:11.776Z,99148.19
2023-04-17T23:11:01.572Z,99148.88
2023-04-17T23:13:47.052Z,99154.97
2023-04-17T23:16:32.737Z,99153.56
2023-04-17T23:19:18.210Z,99153.03
2023-04-17T23:22:03.371Z,99153.03
2023-04-17T23:24:48.744Z,99151.34
2023-04-17T23:27:34.089Z,99152.59
2023-04-17T23:30:19.712Z,99152.59
2023-04-17T23:33:05.348Z,99153.16
2023-04-17T23:35:50.593Z,99157.25
2023-04-17T23:38:36.153Z,99155.06
2023-04-17T23:41:21.478Z,99144.31
2023-04-17T23:44:06.706Z,98975.63
2023-04-17T23:46:52.403Z,99141.94
2023-04-17T23:49:37.683Z,99066.69
2023-04-17T23:52:23.049Z,99138.63
2023-04-17T23:55:11.379Z,99146.22
2023-04-17T23:57:57.289Z,99071.91
